sensor_id;sensor_type;location;lat;lon;timestamp;pressure;altitude;pressure_sealevel;temperature;humidity
64230;BME280;50547;49.498;0.092;2022-08-01T00:00:48;1015;;;20.31;85.61
64230;BME280;50547;49.498;0.092;2022-08-01T00:03:17;1015;;;20.38;85.10
64230;BME280;50547;49.498;0.092;2022-08-01T00:05:47;1015;;;20.22;85.85
64230;BME280;50547;49.498;0.092;2022-08-01T00:08:16;1015;;;20.20;85.74
64230;BME280;50547;49.498;0.092;2022-08-01T00:10:45;1015;;;20.27;85.25
64230;BME280;50547;49.498;0.092;2022-08-01T00:13:14;1015;;;20.36;84.62
64230;BME280;50547;49.498;0.092;2022-08-01T00:15:43;1015;;;20.19;84.82
64230;BME280;50547;49.498;0.092;2022-08-01T00:18:13;1015;;;20.18;84.42
64230;BME280;50547;49.498;0.092;2022-08-01T00:20:41;1015;;;20.26;84.11
64230;BME280;50547;49.498;0.092;2022-08-01T00:23:10;1015;;;20.28;84.34
64230;BME280;50547;49.498;0.092;2022-08-01T00:25:40;1015;;;20.17;84.64
64230;BME280;50547;49.498;0.092;2022-08-01T00:28:09;1015;;;20.23;84.39
64230;BME280;50547;49.498;0.092;2022-08-01T00:30:38;1015;;;20.33;84.11
64230;BME280;50547;49.498;0.092;2022-08-01T00:33:07;1015;;;20.35;83.90
64230;BME280;50547;49.498;0.092;2022-08-01T00:35:36;1015;;;20.20;84.80
64230;BME280;50547;49.498;0.092;2022-08-01T00:38:05;1015;;;20.06;85.69
64230;BME280;50547;49.498;0.092;2022-08-01T00:40:34;1015;;;20.14;85.31
64230;BME280;50547;49.498;0.092;2022-08-01T00:43:03;1015;;;20.16;85.15
64230;BME280;50547;49.498;0.092;2022-08-01T00:45:32;1015;;;20.26;84.67
64230;BME280;50547;49.498;0.092;2022-08-01T00:48:01;1015;;;20.22;84.87
64230;BME280;50547;49.498;0.092;2022-08-01T00:50:27;1015;;;20.13;85.53
64230;BME280;50547;49.498;0.092;2022-08-01T00:52:58;1015;;;20.22;85.37
64230;BME280;50547;49.498;0.092;2022-08-01T00:55:28;1015;;;20.31;85.03
64230;BME280;50547;49.498;0.092;2022-08-01T00:57:58;1015;;;20.28;85.09
64230;BME280;50547;49.498;0.092;2022-08-01T01:00:27;1015;;;20.20;85.51
64230;BME280;50547;49.498;0.092;2022-08-01T01:02:56;1015;;;20.13;85.69
64230;BME280;50547;49.498;0.092;2022-08-01T01:05:25;1015;;;20.09;85.73
64230;BME280;50547;49.498;0.092;2022-08-01T01:07:59;1015;;;20.24;85.35
64230;BME280;50547;49.498;0.092;2022-08-01T01:10:35;1015;;;20.01;86.13
64230;BME280;50547;49.498;0.092;2022-08-01T01:13:09;1015;;;20.13;86.09
64230;BME280;50547;49.498;0.092;2022-08-01T01:15:42;1015;;;19.98;86.75
64230;BME280;50547;49.498;0.092;2022-08-01T01:18:17;1015;;;19.93;86.80
64230;BME280;50547;49.498;0.092;2022-08-01T01:20:53;1015;;;19.90;86.47
64230;BME280;50547;49.498;0.092;2022-08-01T01:23:37;1015;;;19.86;86.50
64230;BME280;50547;49.498;0.092;2022-08-01T01:26:21;1015;;;19.96;86.47
64230;BME280;50547;49.498;0.092;2022-08-01T01:29:02;1015;;;19.88;86.47
64230;BME280;50547;49.498;0.092;2022-08-01T01:31:38;1015;;;19.95;86.44
64230;BME280;50547;49.498;0.092;2022-08-01T01:34:11;1015;;;20.04;86.12
64230;BME280;50547;49.498;0.092;2022-08-01T01:36:42;1015;;;19.96;86.57
64230;BME280;50547;49.498;0.092;2022-08-01T01:39:13;1015;;;19.81;86.87
64230;BME280;50547;49.498;0.092;2022-08-01T01:41:44;1015;;;19.91;86.58
64230;BME280;50547;49.498;0.092;2022-08-01T01:44:19;1015;;;19.94;86.54
64230;BME280;50547;49.498;0.092;2022-08-01T01:46:50;1015;;;19.95;86.43
64230;BME280;50547;49.498;0.092;2022-08-01T01:49:21;1015;;;19.91;86.74
64230;BME280;50547;49.498;0.092;2022-08-01T01:51:54;1015;;;19.98;86.73
64230;BME280;50547;49.498;0.092;2022-08-01T01:54:28;1015;;;20.01;86.47
64230;BME280;50547;49.498;0.092;2022-08-01T01:56:59;1015;;;19.95;86.35
64230;BME280;50547;49.498;0.092;2022-08-01T01:59:32;1015;;;19.88;86.61
64230;BME280;50547;49.498;0.092;2022-08-01T02:02:04;1015;;;19.91;86.59
64230;BME280;50547;49.498;0.092;2022-08-01T02:04:36;1015;;;20.04;86.22
64230;BME280;50547;49.498;0.092;2022-08-01T02:07:08;1015;;;20.00;86.44
64230;BME280;50547;49.498;0.092;2022-08-01T02:09:40;1015;;;20.02;86.18
64230;BME280;50547;49.498;0.092;2022-08-01T02:12:12;1015;;;19.94;86.57
64230;BME280;50547;49.498;0.092;2022-08-01T02:14:42;1015;;;19.92;86.60
64230;BME280;50547;49.498;0.092;2022-08-01T02:17:16;1015;;;20.02;86.03
64230;BME280;50547;49.498;0.092;2022-08-01T02:19:46;1015;;;20.12;85.94
64230;BME280;50547;49.498;0.092;2022-08-01T02:22:19;1015;;;19.97;86.49
64230;BME280;50547;49.498;0.092;2022-08-01T02:24:55;1015;;;20.02;86.50
64230;BME280;50547;49.498;0.092;2022-08-01T02:27:33;1015;;;20.10;86.03
64230;BME280;50547;49.498;0.092;2022-08-01T02:30:05;1015;;;20.02;86.42
64230;BME280;50547;49.498;0.092;2022-08-01T02:32:41;1015;;;19.92;86.74
64230;BME280;50547;49.498;0.092;2022-08-01T02:35:17;1015;;;20.15;85.72
64230;BME280;50547;49.498;0.092;2022-08-01T02:37:48;1015;;;19.98;86.61
64230;BME280;50547;49.498;0.092;2022-08-01T02:40:18;1015;;;20.01;86.33
64230;BME280;50547;49.498;0.092;2022-08-01T02:42:50;1015;;;19.99;86.40
64230;BME280;50547;49.498;0.092;2022-08-01T02:45:24;1015;;;19.94;86.75
64230;BME280;50547;49.498;0.092;2022-08-01T02:47:57;1015;;;20.01;86.57
64230;BME280;50547;49.498;0.092;2022-08-01T02:50:29;1015;;;20.09;86.11
64230;BME280;50547;49.498;0.092;2022-08-01T02:53:00;1015;;;19.96;87.29
64230;BME280;50547;49.498;0.092;2022-08-01T02:55:31;1015;;;20.00;87.08
64230;BME280;50547;49.498;0.092;2022-08-01T02:58:02;1015;;;19.94;87.39
64230;BME280;50547;49.498;0.092;2022-08-01T03:00:32;1015;;;19.92;87.33
64230;BME280;50547;49.498;0.092;2022-08-01T03:03:03;1015;;;19.86;87.52
64230;BME280;50547;49.498;0.092;2022-08-01T03:05:34;1015;;;19.94;87.36
64230;BME280;50547;49.498;0.092;2022-08-01T03:08:05;1015;;;19.95;86.95
64230;BME280;50547;49.498;0.092;2022-08-01T03:10:37;1015;;;19.94;87.11
64230;BME280;50547;49.498;0.092;2022-08-01T03:13:08;1015;;;19.96;86.87
64230;BME280;50547;49.498;0.092;2022-08-01T03:15:39;1015;;;20.17;86.11
64230;BME280;50547;49.498;0.092;2022-08-01T03:18:11;1015;;;20.26;85.73
64230;BME280;50547;49.498;0.092;2022-08-01T03:20:43;1015;;;20.19;86.07
64230;BME280;50547;49.498;0.092;2022-08-01T03:23:14;1015;;;20.17;86.09
64230;BME280;50547;49.498;0.092;2022-08-01T03:25:44;1015;;;20.06;86.80
64230;BME280;50547;49.498;0.092;2022-08-01T03:28:15;1015;;;20.17;86.26
64230;BME280;50547;49.498;0.092;2022-08-01T03:30:45;1015;;;20.14;86.38
64230;BME280;50547;49.498;0.092;2022-08-01T03:33:16;1015;;;20.16;86.23
64230;BME280;50547;49.498;0.092;2022-08-01T03:35:48;1015;;;20.10;86.51
64230;BME280;50547;49.498;0.092;2022-08-01T03:38:21;1015;;;20.03;86.65
64230;BME280;50547;49.498;0.092;2022-08-01T03:40:53;1015;;;19.92;87.05
64230;BME280;50547;49.498;0.092;2022-08-01T03:43:29;1015;;;20.01;86.53
64230;BME280;50547;49.498;0.092;2022-08-01T03:46:02;1015;;;20.05;86.62
64230;BME280;50547;49.498;0.092;2022-08-01T03:48:32;1015;;;20.12;85.89
64230;BME280;50547;49.498;0.092;2022-08-01T03:51:05;1015;;;20.20;85.92
64230;BME280;50547;49.498;0.092;2022-08-01T03:53:36;1015;;;20.23;85.74
64230;BME280;50547;49.498;0.092;2022-08-01T03:56:08;1015;;;20.26;85.57
64230;BME280;50547;49.498;0.092;2022-08-01T03:58:39;1015;;;20.18;85.95
64230;BME280;50547;49.498;0.092;2022-08-01T04:01:10;1015;;;20.23;85.90
64230;BME280;50547;49.498;0.092;2022-08-01T04:03:40;1015;;;20.36;85.34
64230;BME280;50547;49.498;0.092;2022-08-01T04:06:09;1015;;;20.39;85.37
64230;BME280;50547;49.498;0.092;2022-08-01T04:08:39;1015;;;20.31;85.50
64230;BME280;50547;49.498;0.092;2022-08-01T04:11:09;1015;;;20.17;86.32
64230;BME280;50547;49.498;0.092;2022-08-01T04:13:38;1015;;;20.25;86.39
64230;BME280;50547;49.498;0.092;2022-08-01T04:16:07;1015;;;20.27;86.21
64230;BME280;50547;49.498;0.092;2022-08-01T04:18:36;1015;;;20.22;86.18
64230;BME280;50547;49.498;0.092;2022-08-01T04:21:05;1015;;;20.19;86.30
64230;BME280;50547;49.498;0.092;2022-08-01T04:23:35;1015;;;20.17;86.13
64230;BME280;50547;49.498;0.092;2022-08-01T04:26:04;1015;;;20.23;85.94
64230;BME280;50547;49.498;0.092;2022-08-01T04:28:36;1015;;;20.25;85.88
64230;BME280;50547;49.498;0.092;2022-08-01T04:31:07;1015;;;20.38;85.48
64230;BME280;50547;49.498;0.092;2022-08-01T04:33:38;1014;;;20.43;85.45
64230;BME280;50547;49.498;0.092;2022-08-01T04:36:10;1014;;;20.40;85.61
64230;BME280;50547;49.498;0.092;2022-08-01T04:38:43;1015;;;20.38;85.78
64230;BME280;50547;49.498;0.092;2022-08-01T04:41:13;1015;;;20.48;85.34
64230;BME280;50547;49.498;0.092;2022-08-01T04:43:43;1015;;;20.34;86.13
64230;BME280;50547;49.498;0.092;2022-08-01T04:46:13;1015;;;20.34;85.99
64230;BME280;50547;49.498;0.092;2022-08-01T04:48:43;1015;;;20.28;86.48
64230;BME280;50547;49.498;0.092;2022-08-01T04:51:13;1015;;;20.40;85.74
64230;BME280;50547;49.498;0.092;2022-08-01T04:53:43;1015;;;20.36;86.22
64230;BME280;50547;49.498;0.092;2022-08-01T04:56:12;1015;;;20.37;86.20
64230;BME280;50547;49.498;0.092;2022-08-01T04:58:42;1015;;;20.48;85.55
64230;BME280;50547;49.498;0.092;2022-08-01T05:01:11;1015;;;20.34;86.03
64230;BME280;50547;49.498;0.092;2022-08-01T05:03:40;1015;;;20.48;85.47
64230;BME280;50547;49.498;0.092;2022-08-01T05:06:09;1015;;;20.42;85.37
64230;BME280;50547;49.498;0.092;2022-08-01T05:08:38;1015;;;20.54;84.90
64230;BME280;50547;49.498;0.092;2022-08-01T05:11:07;1015;;;20.58;85.02
64230;BME280;50547;49.498;0.092;2022-08-01T05:13:36;1015;;;20.65;84.79
64230;BME280;50547;49.498;0.092;2022-08-01T05:16:05;1015;;;20.67;84.95
64230;BME280;50547;49.498;0.092;2022-08-01T05:18:34;1015;;;20.58;85.50
64230;BME280;50547;49.498;0.092;2022-08-01T05:21:04;1015;;;20.55;85.86
64230;BME280;50547;49.498;0.092;2022-08-01T05:23:33;1015;;;20.65;85.45
64230;BME280;50547;49.498;0.092;2022-08-01T05:26:02;1015;;;20.65;85.31
64230;BME280;50547;49.498;0.092;2022-08-01T05:28:31;1015;;;20.63;85.38
64230;BME280;50547;49.498;0.092;2022-08-01T05:31:00;1015;;;20.71;84.76
64230;BME280;50547;49.498;0.092;2022-08-01T05:33:29;1015;;;20.76;85.14
64230;BME280;50547;49.498;0.092;2022-08-01T05:35:58;1015;;;20.68;85.45
64230;BME280;50547;49.498;0.092;2022-08-01T05:38:27;1015;;;20.63;85.75
64230;BME280;50547;49.498;0.092;2022-08-01T05:40:56;1015;;;20.57;86.41
64230;BME280;50547;49.498;0.092;2022-08-01T05:43:25;1015;;;20.59;86.03
64230;BME280;50547;49.498;0.092;2022-08-01T05:45:54;1015;;;20.59;86.18
64230;BME280;50547;49.498;0.092;2022-08-01T05:48:24;1015;;;20.40;86.94
64230;BME280;50547;49.498;0.092;2022-08-01T05:50:53;1015;;;20.45;86.35
64230;BME280;50547;49.498;0.092;2022-08-01T05:53:22;1015;;;20.48;86.16
64230;BME280;50547;49.498;0.092;2022-08-01T05:55:51;1015;;;20.47;86.07
64230;BME280;50547;49.498;0.092;2022-08-01T05:58:21;1015;;;20.46;86.48
64230;BME280;50547;49.498;0.092;2022-08-01T06:00:50;1015;;;20.54;85.86
64230;BME280;50547;49.498;0.092;2022-08-01T06:03:19;1015;;;20.62;85.22
64230;BME280;50547;49.498;0.092;2022-08-01T06:05:48;1015;;;20.75;84.55
64230;BME280;50547;49.498;0.092;2022-08-01T06:08:17;1015;;;20.79;84.51
64230;BME280;50547;49.498;0.092;2022-08-01T06:10:46;1015;;;20.87;84.20
64230;BME280;50547;49.498;0.092;2022-08-01T06:13:15;1015;;;20.78;84.63
64230;BME280;50547;49.498;0.092;2022-08-01T06:15:44;1015;;;20.76;84.68
64230;BME280;50547;49.498;0.092;2022-08-01T06:18:14;1015;;;20.71;85.00
64230;BME280;50547;49.498;0.092;2022-08-01T06:20:43;1015;;;20.69;85.27
64230;BME280;50547;49.498;0.092;2022-08-01T06:23:13;1015;;;20.67;85.13
64230;BME280;50547;49.498;0.092;2022-08-01T06:25:42;1015;;;20.55;85.62
64230;BME280;50547;49.498;0.092;2022-08-01T06:28:11;1015;;;20.59;85.55
64230;BME280;50547;49.498;0.092;2022-08-01T06:30:41;1015;;;20.50;85.56
64230;BME280;50547;49.498;0.092;2022-08-01T06:33:10;1015;;;20.46;85.83
64230;BME280;50547;49.498;0.092;2022-08-01T06:35:39;1015;;;20.58;84.90
64230;BME280;50547;49.498;0.092;2022-08-01T06:38:08;1015;;;20.58;84.96
64230;BME280;50547;49.498;0.092;2022-08-01T06:40:42;1015;;;20.80;83.87
64230;BME280;50547;49.498;0.092;2022-08-01T06:43:11;1015;;;20.79;84.11
64230;BME280;50547;49.498;0.092;2022-08-01T06:45:40;1015;;;20.71;84.53
64230;BME280;50547;49.498;0.092;2022-08-01T06:48:09;1015;;;20.55;85.58
64230;BME280;50547;49.498;0.092;2022-08-01T06:50:38;1015;;;20.66;85.20
64230;BME280;50547;49.498;0.092;2022-08-01T06:53:07;1015;;;20.68;85.25
64230;BME280;50547;49.498;0.092;2022-08-01T06:55:36;1015;;;20.66;85.11
64230;BME280;50547;49.498;0.092;2022-08-01T06:58:05;1015;;;20.60;85.39
64230;BME280;50547;49.498;0.092;2022-08-01T07:00:34;1015;;;20.70;84.82
64230;BME280;50547;49.498;0.092;2022-08-01T07:03:03;1015;;;20.79;84.66
64230;BME280;50547;49.498;0.092;2022-08-01T07:05:32;1015;;;20.73;85.02
64230;BME280;50547;49.498;0.092;2022-08-01T07:08:01;1015;;;20.74;85.01
64230;BME280;50547;49.498;0.092;2022-08-01T07:10:31;1015;;;20.69;84.80
64230;BME280;50547;49.498;0.092;2022-08-01T07:12:59;1015;;;20.78;84.92
64230;BME280;50547;49.498;0.092;2022-08-01T07:15:28;1015;;;20.91;84.81
64230;BME280;50547;49.498;0.092;2022-08-01T07:17:58;1015;;;20.89;84.88
64230;BME280;50547;49.498;0.092;2022-08-01T07:20:27;1015;;;20.87;85.06
64230;BME280;50547;49.498;0.092;2022-08-01T07:22:56;1015;;;20.93;84.95
64230;BME280;50547;49.498;0.092;2022-08-01T07:25:25;1015;;;20.96;85.01
64230;BME280;50547;49.498;0.092;2022-08-01T07:27:54;1015;;;20.81;86.09
64230;BME280;50547;49.498;0.092;2022-08-01T07:30:23;1015;;;20.82;85.68
64230;BME280;50547;49.498;0.092;2022-08-01T07:32:52;1015;;;20.70;86.17
64230;BME280;50547;49.498;0.092;2022-08-01T07:35:22;1015;;;20.62;86.74
64230;BME280;50547;49.498;0.092;2022-08-01T07:37:51;1015;;;20.65;86.25
64230;BME280;50547;49.498;0.092;2022-08-01T07:40:20;1015;;;20.74;85.60
64230;BME280;50547;49.498;0.092;2022-08-01T07:42:49;1015;;;20.71;85.62
64230;BME280;50547;49.498;0.092;2022-08-01T07:45:18;1015;;;20.71;85.55
64230;BME280;50547;49.498;0.092;2022-08-01T07:47:47;1015;;;20.75;85.52
64230;BME280;50547;49.498;0.092;2022-08-01T07:50:16;1015;;;20.80;84.94
64230;BME280;50547;49.498;0.092;2022-08-01T07:52:45;1015;;;20.95;84.27
64230;BME280;50547;49.498;0.092;2022-08-01T07:55:14;1015;;;21.11;83.63
64230;BME280;50547;49.498;0.092;2022-08-01T07:57:43;1015;;;20.79;84.87
64230;BME280;50547;49.498;0.092;2022-08-01T08:00:13;1015;;;20.99;83.92
64230;BME280;50547;49.498;0.092;2022-08-01T08:02:42;1015;;;21.46;81.70
64230;BME280;50547;49.498;0.092;2022-08-01T08:05:11;1015;;;21.68;81.11
64230;BME280;50547;49.498;0.092;2022-08-01T08:07:37;1015;;;21.68;80.83
64230;BME280;50547;49.498;0.092;2022-08-01T08:10:12;1015;;;21.53;81.66
64230;BME280;50547;49.498;0.092;2022-08-01T08:12:41;1015;;;21.37;82.01
64230;BME280;50547;49.498;0.092;2022-08-01T08:15:10;1015;;;21.42;81.87
64230;BME280;50547;49.498;0.092;2022-08-01T08:17:39;1015;;;21.32;82.35
64230;BME280;50547;49.498;0.092;2022-08-01T08:20:09;1016;;;21.40;82.04
64230;BME280;50547;49.498;0.092;2022-08-01T08:22:38;1015;;;21.01;83.74
64230;BME280;50547;49.498;0.092;2022-08-01T08:28:00;1015;;;20.98;83.06
64230;BME280;50547;49.498;0.092;2022-08-01T08:30:55;1016;;;21.03;82.61
64230;BME280;50547;49.498;0.092;2022-08-01T08:33:24;1016;;;20.66;82.77
64230;BME280;50547;49.498;0.092;2022-08-01T08:35:53;1016;;;20.54;81.71
64230;BME280;50547;49.498;0.092;2022-08-01T08:38:22;1016;;;20.63;81.24
64230;BME280;50547;49.498;0.092;2022-08-01T08:40:52;1016;;;20.78;80.12
64230;BME280;50547;49.498;0.092;2022-08-01T08:43:21;1016;;;20.86;80.09
64230;BME280;50547;49.498;0.092;2022-08-01T08:45:52;1016;;;20.86;79.83
64230;BME280;50547;49.498;0.092;2022-08-01T08:48:37;1016;;;20.90;80.02
64230;BME280;50547;49.498;0.092;2022-08-01T08:51:08;1016;;;20.74;80.69
64230;BME280;50547;49.498;0.092;2022-08-01T08:53:40;1016;;;20.95;79.92
64230;BME280;50547;49.498;0.092;2022-08-01T08:56:10;1016;;;21.00;80.34
64230;BME280;50547;49.498;0.092;2022-08-01T08:58:41;1016;;;20.85;81.53
64230;BME280;50547;49.498;0.092;2022-08-01T09:01:13;1016;;;20.95;80.27
64230;BME280;50547;49.498;0.092;2022-08-01T09:03:42;1016;;;21.11;79.83
64230;BME280;50547;49.498;0.092;2022-08-01T09:06:11;1016;;;21.00;80.59
64230;BME280;50547;49.498;0.092;2022-08-01T09:08:40;1016;;;20.98;80.64
64230;BME280;50547;49.498;0.092;2022-08-01T09:11:09;1016;;;21.01;80.33
64230;BME280;50547;49.498;0.092;2022-08-01T09:13:39;1016;;;20.90;81.14
64230;BME280;50547;49.498;0.092;2022-08-01T09:16:08;1016;;;21.08;80.03
64230;BME280;50547;49.498;0.092;2022-08-01T09:18:44;1016;;;21.30;78.12
64230;BME280;50547;49.498;0.092;2022-08-01T09:21:16;1016;;;21.45;77.67
64230;BME280;50547;49.498;0.092;2022-08-01T09:23:47;1016;;;21.25;78.44
64230;BME280;50547;49.498;0.092;2022-08-01T09:26:18;1016;;;21.44;78.15
64230;BME280;50547;49.498;0.092;2022-08-01T09:28:48;1016;;;21.83;77.19
64230;BME280;50547;49.498;0.092;2022-08-01T09:31:18;1016;;;21.88;75.89
64230;BME280;50547;49.498;0.092;2022-08-01T09:33:50;1016;;;21.82;75.47
64230;BME280;50547;49.498;0.092;2022-08-01T09:36:20;1016;;;21.77;75.75
64230;BME280;50547;49.498;0.092;2022-08-01T09:38:51;1016;;;22.10;74.72
64230;BME280;50547;49.498;0.092;2022-08-01T09:41:29;1016;;;22.06;75.61
64230;BME280;50547;49.498;0.092;2022-08-01T09:43:58;1016;;;22.82;72.43
64230;BME280;50547;49.498;0.092;2022-08-01T09:46:27;1016;;;22.40;72.41
64230;BME280;50547;49.498;0.092;2022-08-01T09:48:59;1016;;;22.70;71.58
64230;BME280;50547;49.498;0.092;2022-08-01T09:51:36;1016;;;23.30;69.24
64230;BME280;50547;49.498;0.092;2022-08-01T09:54:06;1016;;;23.21;70.48
64230;BME280;50547;49.498;0.092;2022-08-01T09:56:36;1016;;;23.58;68.24
64230;BME280;50547;49.498;0.092;2022-08-01T09:59:06;1016;;;23.62;68.36
64230;BME280;50547;49.498;0.092;2022-08-01T10:02:02;1016;;;23.58;69.19
64230;BME280;50547;49.498;0.092;2022-08-01T10:04:31;1016;;;23.15;71.56
64230;BME280;50547;49.498;0.092;2022-08-01T10:07:04;1016;;;23.27;69.95
64230;BME280;50547;49.498;0.092;2022-08-01T10:09:35;1016;;;22.79;72.43
64230;BME280;50547;49.498;0.092;2022-08-01T10:12:05;1016;;;22.72;73.29
64230;BME280;50547;49.498;0.092;2022-08-01T10:14:36;1016;;;22.87;71.56
64230;BME280;50547;49.498;0.092;2022-08-01T10:17:08;1016;;;22.90;71.06
64230;BME280;50547;49.498;0.092;2022-08-01T10:19:40;1016;;;23.06;69.21
64230;BME280;50547;49.498;0.092;2022-08-01T10:22:12;1016;;;23.16;67.83
64230;BME280;50547;49.498;0.092;2022-08-01T10:24:43;1016;;;22.94;69.17
64230;BME280;50547;49.498;0.092;2022-08-01T10:27:15;1016;;;22.77;70.77
64230;BME280;50547;49.498;0.092;2022-08-01T10:29:50;1016;;;23.07;68.49
64230;BME280;50547;49.498;0.092;2022-08-01T10:32:20;1016;;;23.54;66.18
64230;BME280;50547;49.498;0.092;2022-08-01T10:34:50;1016;;;23.25;67.58
64230;BME280;50547;49.498;0.092;2022-08-01T10:37:20;1016;;;23.39;66.85
64230;BME280;50547;49.498;0.092;2022-08-01T10:39:51;1016;;;23.38;67.71
64230;BME280;50547;49.498;0.092;2022-08-01T10:42:20;1016;;;23.32;68.84
64230;BME280;50547;49.498;0.092;2022-08-01T10:44:51;1016;;;23.24;69.02
64230;BME280;50547;49.498;0.092;2022-08-01T10:47:25;1016;;;23.11;69.89
64230;BME280;50547;49.498;0.092;2022-08-01T10:50:06;1016;;;23.09;69.29
64230;BME280;50547;49.498;0.092;2022-08-01T10:52:36;1016;;;23.03;70.23
64230;BME280;50547;49.498;0.092;2022-08-01T10:55:03;1016;;;23.00;70.69
64230;BME280;50547;49.498;0.092;2022-08-01T10:57:48;1016;;;22.38;72.88
64230;BME280;50547;49.498;0.092;2022-08-01T11:00:18;1016;;;22.29;72.09
64230;BME280;50547;49.498;0.092;2022-08-01T11:02:57;1016;;;22.87;68.27
64230;BME280;50547;49.498;0.092;2022-08-01T11:05:30;1016;;;22.91;67.53
64230;BME280;50547;49.498;0.092;2022-08-01T11:08:03;1016;;;22.85;67.66
64230;BME280;50547;49.498;0.092;2022-08-01T11:10:37;1016;;;22.92;68.37
64230;BME280;50547;49.498;0.092;2022-08-01T11:13:07;1016;;;23.10;67.06
64230;BME280;50547;49.498;0.092;2022-08-01T11:15:36;1016;;;23.03;66.27
64230;BME280;50547;49.498;0.092;2022-08-01T11:18:29;1016;;;23.33;65.61
64230;BME280;50547;49.498;0.092;2022-08-01T11:21:00;1016;;;23.63;65.08
64230;BME280;50547;49.498;0.092;2022-08-01T11:23:30;1016;;;23.37;66.04
64230;BME280;50547;49.498;0.092;2022-08-01T11:26:15;1016;;;23.56;65.25
64230;BME280;50547;49.498;0.092;2022-08-01T11:29:10;1016;;;23.50;65.82
64230;BME280;50547;49.498;0.092;2022-08-01T11:31:40;1016;;;23.35;66.28
64230;BME280;50547;49.498;0.092;2022-08-01T11:34:09;1016;;;23.41;66.72
64230;BME280;50547;49.498;0.092;2022-08-01T11:36:38;1016;;;23.58;65.57
64230;BME280;50547;49.498;0.092;2022-08-01T11:39:12;1016;;;23.65;65.98
64230;BME280;50547;49.498;0.092;2022-08-01T11:41:47;1016;;;23.49;67.42
64230;BME280;50547;49.498;0.092;2022-08-01T11:44:22;1016;;;23.52;67.07
64230;BME280;50547;49.498;0.092;2022-08-01T11:47:01;1016;;;23.60;66.45
64230;BME280;50547;49.498;0.092;2022-08-01T11:49:44;1016;;;23.78;66.25
64230;BME280;50547;49.498;0.092;2022-08-01T11:52:15;1016;;;23.64;66.14
64230;BME280;50547;49.498;0.092;2022-08-01T11:54:47;1016;;;23.25;69.22
64230;BME280;50547;49.498;0.092;2022-08-01T11:57:18;1016;;;23.20;67.81
64230;BME280;50547;49.498;0.092;2022-08-01T11:59:46;1016;;;23.14;69.37
64230;BME280;50547;49.498;0.092;2022-08-01T12:02:19;1016;;;23.19;68.94
64230;BME280;50547;49.498;0.092;2022-08-01T12:04:51;1016;;;23.25;68.21
64230;BME280;50547;49.498;0.092;2022-08-01T12:07:21;1016;;;23.19;69.90
64230;BME280;50547;49.498;0.092;2022-08-01T12:10:00;1016;;;22.99;70.22
64230;BME280;50547;49.498;0.092;2022-08-01T12:12:31;1016;;;22.54;71.27
64230;BME280;50547;49.498;0.092;2022-08-01T12:15:00;1016;;;22.59;70.97
64230;BME280;50547;49.498;0.092;2022-08-01T12:17:34;1016;;;22.97;69.02
64230;BME280;50547;49.498;0.092;2022-08-01T12:20:06;1016;;;23.11;67.43
64230;BME280;50547;49.498;0.092;2022-08-01T12:22:36;1016;;;23.31;66.89
64230;BME280;50547;49.498;0.092;2022-08-01T12:25:07;1016;;;23.15;68.80
64230;BME280;50547;49.498;0.092;2022-08-01T12:27:37;1016;;;23.41;67.29
64230;BME280;50547;49.498;0.092;2022-08-01T12:30:07;1016;;;23.41;67.22
64230;BME280;50547;49.498;0.092;2022-08-01T12:32:35;1016;;;23.38;65.91
64230;BME280;50547;49.498;0.092;2022-08-01T12:35:06;1016;;;23.65;66.47
64230;BME280;50547;49.498;0.092;2022-08-01T12:37:36;1016;;;23.97;65.57
64230;BME280;50547;49.498;0.092;2022-08-01T12:40:11;1016;;;23.84;65.31
64230;BME280;50547;49.498;0.092;2022-08-01T12:42:42;1016;;;24.00;65.71
64230;BME280;50547;49.498;0.092;2022-08-01T12:45:15;1016;;;23.37;67.54
64230;BME280;50547;49.498;0.092;2022-08-01T12:47:46;1016;;;22.70;73.54
64230;BME280;50547;49.498;0.092;2022-08-01T12:50:18;1016;;;23.08;70.93
64230;BME280;50547;49.498;0.092;2022-08-01T12:52:48;1016;;;23.00;70.21
64230;BME280;50547;49.498;0.092;2022-08-01T12:55:18;1016;;;22.92;70.71
64230;BME280;50547;49.498;0.092;2022-08-01T12:57:49;1016;;;22.56;72.10
64230;BME280;50547;49.498;0.092;2022-08-01T13:00:21;1016;;;22.40;72.05
64230;BME280;50547;49.498;0.092;2022-08-01T13:03:01;1016;;;22.75;68.97
64230;BME280;50547;49.498;0.092;2022-08-01T13:05:45;1016;;;23.02;69.18
64230;BME280;50547;49.498;0.092;2022-08-01T13:08:15;1016;;;22.51;70.00
64230;BME280;50547;49.498;0.092;2022-08-01T13:10:46;1016;;;22.98;68.26
64230;BME280;50547;49.498;0.092;2022-08-01T13:13:17;1016;;;22.97;69.11
64230;BME280;50547;49.498;0.092;2022-08-01T13:15:46;1016;;;23.01;68.91
64230;BME280;50547;49.498;0.092;2022-08-01T13:18:24;1016;;;22.67;71.50
64230;BME280;50547;49.498;0.092;2022-08-01T13:21:11;1016;;;23.29;66.18
64230;BME280;50547;49.498;0.092;2022-08-01T13:23:42;1016;;;22.53;69.25
64230;BME280;50547;49.498;0.092;2022-08-01T13:27:02;1016;;;23.09;67.75
64230;BME280;50547;49.498;0.092;2022-08-01T13:29:32;1016;;;23.06;68.08
64230;BME280;50547;49.498;0.092;2022-08-01T13:31:59;1016;;;23.22;67.44
64230;BME280;50547;49.498;0.092;2022-08-01T13:34:30;1016;;;23.26;68.14
64230;BME280;50547;49.498;0.092;2022-08-01T13:36:59;1016;;;23.27;68.72
64230;BME280;50547;49.498;0.092;2022-08-01T13:39:25;1016;;;23.31;68.88
64230;BME280;50547;49.498;0.092;2022-08-01T13:41:54;1016;;;23.15;69.07
64230;BME280;50547;49.498;0.092;2022-08-01T13:44:23;1016;;;23.26;67.87
64230;BME280;50547;49.498;0.092;2022-08-01T13:46:52;1016;;;22.89;69.86
64230;BME280;50547;49.498;0.092;2022-08-01T13:49:21;1016;;;22.67;70.92
64230;BME280;50547;49.498;0.092;2022-08-01T13:51:50;1016;;;23.36;67.37
64230;BME280;50547;49.498;0.092;2022-08-01T13:54:32;1016;;;23.05;68.84
64230;BME280;50547;49.498;0.092;2022-08-01T13:57:01;1016;;;22.86;70.10
64230;BME280;50547;49.498;0.092;2022-08-01T13:59:30;1016;;;22.67;70.50
64230;BME280;50547;49.498;0.092;2022-08-01T14:01:59;1016;;;22.63;70.51
64230;BME280;50547;49.498;0.092;2022-08-01T14:04:28;1016;;;22.70;69.44
64230;BME280;50547;49.498;0.092;2022-08-01T14:06:57;1015;;;22.85;69.43
64230;BME280;50547;49.498;0.092;2022-08-01T14:09:26;1015;;;22.93;68.54